createdAt,value
2019-05-11T00:00:22.490Z,80.75
2019-05-11T00:01:57.407Z,80.72
2019-05-11T00:03:32.075Z,81.83
2019-05-11T00:05:08.081Z,81.83
2019-05-11T00:06:42.726Z,80.52
2019-05-11T00:08:17.642Z,80.59
2019-05-11T00:09:58.134Z,80.59
2019-05-11T00:11:28.841Z,81.36
2019-05-11T00:13:03.507Z,80.77
2019-05-11T00:14:38.508Z,81.06
2019-05-11T00:16:13.163Z,80.48
2019-05-11T00:17:47.986Z,80.98
2019-05-11T00:19:22.666Z,81.48
2019-05-11T00:20:57.542Z,81.54
2019-05-11T00:22:32.256Z,81.18
2019-05-11T00:24:07.089Z,81.39
2019-05-11T00:25:41.872Z,80.96
2019-05-11T00:27:16.699Z,80.32
2019-05-11T00:28:51.412Z,80.80
2019-05-11T00:30:26.261Z,80.83
2019-05-11T00:32:00.992Z,80.08
2019-05-11T00:33:35.815Z,81.66
2019-05-11T00:35:10.536Z,80.63
2019-05-11T00:36:45.388Z,80.92
2019-05-11T00:38:20.031Z,80.92
2019-05-11T00:39:54.882Z,80.92
2019-05-11T00:41:29.601Z,81.12
2019-05-11T00:43:04.657Z,80.79
2019-05-11T00:44:39.316Z,81.34
2019-05-11T00:46:14.245Z,81.13
2019-05-11T00:47:49.043Z,80.87
2019-05-11T00:49:23.890Z,80.74
2019-05-11T00:50:58.533Z,80.47
2019-05-11T00:52:33.365Z,80.53
2019-05-11T00:54:08.320Z,79.92
2019-05-11T00:55:43.217Z,79.92
2019-05-11T00:57:17.875Z,80.43
2019-05-11T00:58:52.707Z,80.14
2019-05-11T01:00:27.435Z,80.88
2019-05-11T01:02:02.272Z,80.83
2019-05-11T01:03:36.914Z,80.77
2019-05-11T01:05:11.957Z,80.87
2019-05-11T01:06:46.647Z,81.07
2019-05-11T01:08:21.526Z,81.23
2019-05-11T01:09:56.172Z,80.64
2019-05-11T01:11:31.008Z,80.29
2019-05-11T01:13:05.656Z,80.31
2019-05-11T01:14:40.466Z,80.20
2019-05-11T01:16:15.174Z,80.37
2019-05-11T01:17:50.038Z,80.72
2019-05-11T01:19:24.765Z,80.70
2019-05-11T01:20:59.760Z,79.80
2019-05-11T01:22:34.504Z,79.99
2019-05-11T01:24:09.348Z,80.12
2019-05-11T01:25:44.015Z,80.17
2019-05-11T01:27:18.831Z,79.96
2019-05-11T01:28:53.496Z,80.35
2019-05-11T01:30:28.314Z,80.12
2019-05-11T01:32:03.002Z,79.42
2019-05-11T01:33:37.838Z,79.33
2019-05-11T01:35:12.633Z,79.84
2019-05-11T01:36:47.447Z,80.16
2019-05-11T01:38:22.128Z,80.19
2019-05-11T01:39:56.938Z,80.04
2019-05-11T01:41:31.564Z,80.09
2019-05-11T01:43:06.412Z,80.22
2019-05-11T01:44:41.049Z,80.48
2019-05-11T01:46:15.947Z,80.84
2019-05-11T01:47:50.617Z,80.86
2019-05-11T01:49:25.450Z,80.89
2019-05-11T01:51:00.076Z,79.99
2019-05-11T01:52:34.896Z,80.56
2019-05-11T01:54:09.518Z,79.41
2019-05-11T01:55:44.424Z,80.29
2019-05-11T01:57:19.090Z,80.57
2019-05-11T01:58:53.913Z,80.58
2019-05-11T02:00:28.660Z,80.11
2019-05-11T02:02:03.618Z,80.69
2019-05-11T02:03:38.246Z,80.93
2019-05-11T02:05:29.296Z,80.84
2019-05-11T02:07:04.068Z,81.08
2019-05-11T02:08:38.906Z,80.27
2019-05-11T02:10:13.797Z,81.06
2019-05-11T02:11:48.621Z,80.71
2019-05-11T02:13:23.762Z,81.13
2019-05-11T02:14:58.596Z,81.58
2019-05-11T02:16:33.666Z,80.80
2019-05-11T02:18:08.653Z,81.41
2019-05-11T02:19:43.291Z,82.14
2019-05-11T02:21:18.127Z,81.71
2019-05-11T02:22:52.769Z,82.52
2019-05-11T02:24:27.970Z,82.84
2019-05-11T02:26:02.773Z,82.70
2019-05-11T02:27:37.699Z,82.94
2019-05-11T02:29:12.362Z,83.11
2019-05-11T02:30:47.192Z,83.04
2019-05-11T02:32:21.843Z,83.36
2019-05-11T02:33:56.674Z,83.20
2019-05-11T02:35:31.334Z,83.66
2019-05-11T02:37:06.170Z,83.67
2019-05-11T02:38:40.805Z,83.97
2019-05-11T02:40:16.014Z,84.04
2019-05-11T02:41:50.672Z,84.35
2019-05-11T02:43:25.504Z,84.43
2019-05-11T02:45:00.231Z,84.27
2019-05-11T02:46:36.266Z,84.30
2019-05-11T02:48:11.286Z,84.04
2019-05-11T02:49:46.117Z,84.13
2019-05-11T02:51:21.993Z,84.12
2019-05-11T02:52:57.208Z,84.46
2019-05-11T02:54:31.921Z,84.20
2019-05-11T02:56:06.812Z,84.11
2019-05-11T02:57:41.517Z,84.32
2019-05-11T02:59:16.365Z,84.01
2019-05-11T03:00:51.007Z,84.13
2019-05-11T03:02:27.370Z,84.21
2019-05-11T03:04:02.029Z,83.99
2019-05-11T03:05:37.016Z,84.16
2019-05-11T03:07:11.619Z,83.59
2019-05-11T03:08:46.474Z,83.66
2019-05-11T03:10:21.106Z,83.58
2019-05-11T03:11:56.563Z,83.41
2019-05-11T03:13:31.391Z,83.06
2019-05-11T03:15:06.835Z,82.75
2019-05-11T03:16:42.513Z,82.92
2019-05-11T03:18:17.459Z,82.97
2019-05-11T03:19:52.078Z,82.95
2019-05-11T03:21:26.927Z,82.83
2019-05-11T03:23:01.656Z,82.40
2019-05-11T03:24:36.500Z,82.59
2019-05-11T03:26:11.185Z,82.18
2019-05-11T03:27:46.138Z,81.84
2019-05-11T03:29:20.796Z,82.11
2019-05-11T03:30:55.688Z,81.58
2019-05-11T03:32:30.315Z,81.85
2019-05-11T03:34:05.230Z,81.40
2019-05-11T03:35:39.931Z,81.20
2019-05-11T03:37:14.750Z,81.53
2019-05-11T03:38:49.393Z,81.81
2019-05-11T03:40:24.236Z,81.43
2019-05-11T03:42:13.161Z,81.89
2019-05-11T03:43:35.438Z,81.54
2019-05-11T03:45:10.462Z,81.39
2019-05-11T03:46:45.388Z,81.36
2019-05-11T03:48:20.228Z,81.74
2019-05-11T03:49:55.133Z,81.23
2019-05-11T03:51:31.042Z,80.71
2019-05-11T03:53:06.484Z,80.57
2019-05-11T03:54:41.171Z,80.40
2019-05-11T03:56:16.028Z,80.99
2019-05-11T03:57:50.778Z,81.15
2019-05-11T03:59:25.610Z,80.75
2019-05-11T04:01:00.355Z,80.40
2019-05-11T04:02:35.270Z,80.29
2019-05-11T04:04:09.903Z,80.48
2019-05-11T04:05:44.749Z,80.35
2019-05-11T04:07:19.466Z,80.34
2019-05-11T04:08:54.411Z,80.36
2019-05-11T04:10:29.241Z,79.92
2019-05-11T04:12:04.159Z,79.83
2019-05-11T04:13:38.822Z,78.96
2019-05-11T04:15:14.296Z,79.96
2019-05-11T04:16:48.981Z,80.24
2019-05-11T04:18:23.841Z,80.73
2019-05-11T04:19:58.512Z,80.66
2019-05-11T04:21:33.406Z,81.09
2019-05-11T04:23:09.145Z,81.13
2019-05-11T04:24:44.011Z,81.06
2019-05-11T04:26:18.700Z,79.70
2019-05-11T04:27:53.597Z,79.24
2019-05-11T04:29:28.285Z,79.22
2019-05-11T04:31:03.196Z,79.11
2019-05-11T04:32:37.867Z,80.83
2019-05-11T04:34:12.740Z,79.86
2019-05-11T04:35:47.387Z,81.60
2019-05-11T04:37:22.243Z,81.26
2019-05-11T04:38:56.996Z,81.54
2019-05-11T04:40:31.818Z,79.76
2019-05-11T04:42:06.524Z,81.24
2019-05-11T04:43:41.330Z,81.50
2019-05-11T04:45:17.044Z,80.75
2019-05-11T04:46:51.994Z,79.77
2019-05-11T04:48:26.800Z,79.00
2019-05-11T04:50:01.708Z,80.37
2019-05-11T04:51:36.401Z,79.76
2019-05-11T04:53:11.214Z,78.76
2019-05-11T04:54:45.971Z,80.50
2019-05-11T04:56:20.810Z,80.40
2019-05-11T04:57:55.467Z,79.14
2019-05-11T04:59:30.303Z,79.14
2019-05-11T05:01:05.074Z,79.47
2019-05-11T05:02:39.900Z,79.89
2019-05-11T05:04:14.714Z,79.75
2019-05-11T05:05:49.627Z,79.08
2019-05-11T05:07:24.465Z,79.84
2019-05-11T05:09:03.744Z,80.03
2019-05-11T05:10:36.056Z,80.47
2019-05-11T05:12:14.026Z,79.41
2019-05-11T05:13:47.475Z,79.65
2019-05-11T05:15:22.394Z,78.95
2019-05-11T05:16:57.074Z,78.75
2019-05-11T05:18:33.572Z,78.73
2019-05-11T05:20:08.497Z,78.41
2019-05-11T05:21:43.442Z,76.40
2019-05-11T05:23:18.092Z,77.80
2019-05-11T05:24:52.954Z,76.94
2019-05-11T05:26:27.618Z,77.95
2019-05-11T05:28:02.518Z,77.91
2019-05-11T05:29:37.608Z,77.09
2019-05-11T05:31:12.497Z,77.21
2019-05-11T05:32:47.182Z,75.49
2019-05-11T05:34:21.996Z,74.89
2019-05-11T05:35:56.744Z,75.49
2019-05-11T05:37:31.714Z,74.29
2019-05-11T05:39:08.913Z,74.33
2019-05-11T05:40:44.237Z,73.74
2019-05-11T05:42:18.907Z,73.32
2019-05-11T05:43:53.787Z,74.61
2019-05-11T05:45:28.438Z,72.80
2019-05-11T05:47:04.555Z,69.82
2019-05-11T05:48:39.242Z,69.23
2019-05-11T05:50:14.327Z,67.90
2019-05-11T05:51:49.009Z,67.90
2019-05-11T05:53:23.989Z,68.53
2019-05-11T05:54:58.667Z,66.45
2019-05-11T05:56:33.529Z,64.77
2019-05-11T05:58:08.285Z,63.75
2019-05-11T05:59:43.613Z,61.19
2019-05-11T06:01:18.384Z,61.63
2019-05-11T06:02:54.281Z,57.34
2019-05-11T06:04:29.045Z,57.34
2019-05-11T06:06:03.889Z,55.95
2019-05-11T06:07:38.543Z,51.62
2019-05-11T06:09:13.435Z,56.77
2019-05-11T06:10:48.182Z,56.91
2019-05-11T06:12:23.032Z,57.85
2019-05-11T06:13:57.695Z,63.15
2019-05-11T06:15:32.627Z,64.23
2019-05-11T06:17:07.358Z,64.49
2019-05-11T06:18:42.234Z,68.23
2019-05-11T06:20:17.243Z,67.80
2019-05-11T06:21:52.107Z,68.46
2019-05-11T06:23:26.830Z,68.16
2019-05-11T06:25:01.684Z,67.14
2019-05-11T06:26:36.369Z,68.80
2019-05-11T06:28:11.269Z,68.04
2019-05-11T06:29:45.914Z,68.59
2019-05-11T06:31:20.743Z,66.78
2019-05-11T06:32:56.491Z,67.83
2019-05-11T06:34:31.321Z,67.76
2019-05-11T06:36:05.970Z,66.08
2019-05-11T06:37:40.806Z,65.61
2019-05-11T06:39:15.458Z,65.61
2019-05-11T06:40:50.288Z,63.86
2019-05-11T06:42:24.941Z,65.30
2019-05-11T06:44:02.223Z,64.94
2019-05-11T06:45:36.158Z,65.37
2019-05-11T06:47:11.008Z,65.16
2019-05-11T06:48:45.736Z,65.16
2019-05-11T06:50:20.607Z,64.68
2019-05-11T06:51:56.237Z,64.68
2019-05-11T06:53:31.060Z,65.24
2019-05-11T06:55:06.037Z,64.96
2019-05-11T06:56:40.884Z,64.28
2019-05-11T06:58:15.536Z,64.67
2019-05-11T06:59:50.383Z,63.35
2019-05-11T07:01:25.048Z,63.35
2019-05-11T07:02:59.882Z,64.11
2019-05-11T07:04:39.799Z,64.39
2019-05-11T07:06:14.655Z,64.39
2019-05-11T07:07:49.364Z,63.19
2019-05-11T07:09:24.298Z,63.04
2019-05-11T07:10:58.958Z,63.04
2019-05-11T07:12:33.811Z,62.86
2019-05-11T07:14:19.899Z,62.86
2019-05-11T07:15:46.252Z,63.61
2019-05-11T07:17:20.903Z,64.07
2019-05-11T07:18:55.736Z,63.33
2019-05-11T07:20:30.370Z,63.33
2019-05-11T07:22:05.274Z,63.56
2019-05-11T07:23:39.924Z,63.56
2019-05-11T07:25:14.859Z,63.76
2019-05-11T07:26:49.530Z,62.54
2019-05-11T07:28:24.385Z,63.67
2019-05-11T07:29:59.340Z,63.67
2019-05-11T07:31:34.155Z,64.02
2019-05-11T07:33:08.969Z,64.02
2019-05-11T07:34:43.885Z,63.43
2019-05-11T07:36:18.545Z,64.78
2019-05-11T07:37:54.357Z,65.18
2019-05-11T07:39:29.534Z,65.64
2019-05-11T07:41:04.378Z,65.76
2019-05-11T07:42:39.052Z,65.76
2019-05-11T07:44:14.891Z,66.04
2019-05-11T07:45:49.530Z,64.89
2019-05-11T07:47:24.368Z,66.13
2019-05-11T07:48:59.035Z,66.13
2019-05-11T07:50:33.929Z,65.15
2019-05-11T07:52:08.596Z,66.14
2019-05-11T07:53:43.441Z,66.45
2019-05-11T07:55:19.111Z,66.45
2019-05-11T07:56:54.196Z,66.15
2019-05-11T07:58:28.852Z,66.14
2019-05-11T08:00:03.727Z,66.24
2019-05-11T08:01:38.922Z,65.86
2019-05-11T08:03:14.861Z,65.86
2019-05-11T08:04:49.529Z,65.33
2019-05-11T08:06:24.392Z,65.33
2019-05-11T08:08:01.117Z,66.89
2019-05-11T08:09:38.015Z,66.89
2019-05-11T08:11:12.322Z,65.90
2019-05-11T08:12:48.128Z,65.90
2019-05-11T08:14:22.911Z,65.88
2019-05-11T08:15:58.801Z,66.67
2019-05-11T08:17:33.548Z,66.42
2019-05-11T08:19:10.696Z,66.88
2019-05-11T08:20:44.866Z,66.88
2019-05-11T08:22:22.711Z,68.06
2019-05-11T08:23:58.543Z,67.78
2019-05-11T08:25:33.151Z,67.78
2019-05-11T08:27:08.503Z,68.32
2019-05-11T08:28:43.341Z,68.51
2019-05-11T08:30:20.022Z,68.38
2019-05-11T08:31:58.161Z,68.38
2019-05-11T08:33:33.810Z,69.02
2019-05-11T08:35:09.921Z,70.39
2019-05-11T08:36:44.564Z,70.39
2019-05-11T08:38:19.570Z,69.95
2019-05-11T08:39:54.288Z,69.95
2019-05-11T08:41:29.193Z,69.53
2019-05-11T08:43:03.852Z,70.94
2019-05-11T08:44:38.727Z,70.77
2019-05-11T08:46:13.470Z,70.50
2019-05-11T08:47:48.672Z,71.29
2019-05-11T08:49:23.367Z,70.66
2019-05-11T08:50:58.407Z,71.43
2019-05-11T08:52:32.980Z,69.88
2019-05-11T08:54:08.922Z,70.81
2019-05-11T08:55:43.855Z,70.81
2019-05-11T08:57:18.709Z,69.60
2019-05-11T08:58:55.333Z,70.76
2019-05-11T09:00:30.100Z,70.83
2019-05-11T09:02:04.832Z,70.83
2019-05-11T09:03:40.657Z,70.60
2019-05-11T09:05:15.408Z,71.77
2019-05-11T09:06:50.241Z,71.18
2019-05-11T09:08:24.913Z,72.87
2019-05-11T09:09:59.748Z,71.93
2019-05-11T09:11:34.408Z,71.61
2019-05-11T09:13:09.251Z,71.29
2019-05-11T09:14:43.888Z,72.06
2019-05-11T09:16:19.239Z,71.95
2019-05-11T09:18:13.611Z,72.30
2019-05-11T09:19:48.265Z,72.64
2019-05-11T09:21:23.077Z,73.50
2019-05-11T09:22:58.904Z,75.39
2019-05-11T09:24:34.041Z,74.82
2019-05-11T09:26:08.990Z,75.03
2019-05-11T09:28:02.254Z,75.35
2019-05-11T09:29:38.716Z,75.35
2019-05-11T09:31:13.622Z,75.86
2019-05-11T09:32:48.354Z,76.26
2019-05-11T09:34:24.127Z,76.67
2019-05-11T09:35:58.891Z,75.15
2019-05-11T09:37:33.740Z,75.91
2019-05-11T09:39:08.783Z,74.83
2019-05-11T09:40:43.608Z,74.83
2019-05-11T09:42:18.262Z,74.76
2019-05-11T09:43:53.082Z,76.25
2019-05-11T09:45:27.963Z,75.54
2019-05-11T09:47:02.915Z,73.97
2019-05-11T09:48:37.997Z,75.83
2019-05-11T09:50:13.643Z,75.25
2019-05-11T09:51:48.694Z,76.38
2019-05-11T09:53:23.536Z,75.87
2019-05-11T09:54:58.245Z,75.24
2019-05-11T09:56:33.135Z,73.99
2019-05-11T09:58:08.629Z,73.92
2019-05-11T09:59:43.572Z,74.87
2019-05-11T10:01:18.575Z,75.84
2019-05-11T10:02:54.569Z,76.05
2019-05-11T10:04:29.286Z,76.23
2019-05-11T10:06:04.119Z,76.24
2019-05-11T10:07:38.751Z,75.55
2019-05-11T10:09:13.631Z,74.52
2019-05-11T10:10:48.893Z,73.77
2019-05-11T10:12:23.862Z,75.09
2019-05-11T10:13:58.501Z,74.67
2019-05-11T10:15:33.357Z,75.68
2019-05-11T10:17:08.023Z,74.98
2019-05-11T10:18:42.870Z,75.17
2019-05-11T10:20:18.314Z,75.35
2019-05-11T10:21:53.291Z,74.59
2019-05-11T10:23:28.201Z,74.05
2019-05-11T10:25:04.196Z,73.63
2019-05-11T10:26:39.392Z,73.53
2019-05-11T10:28:14.442Z,74.36
2019-05-11T10:29:49.071Z,74.36
2019-05-11T10:31:23.945Z,75.62
2019-05-11T10:32:58.674Z,75.53
2019-05-11T10:34:33.557Z,77.47
2019-05-11T10:36:08.455Z,77.85
2019-05-11T10:37:43.378Z,76.41
2019-05-11T10:39:18.782Z,76.41
2019-05-11T10:40:53.722Z,77.54
2019-05-11T10:42:37.739Z,77.30
2019-05-11T10:44:12.015Z,78.82
2019-05-11T10:45:48.330Z,78.82
2019-05-11T10:47:23.380Z,77.37
2019-05-11T10:48:59.203Z,77.02
2019-05-11T10:50:34.126Z,76.93
2019-05-11T10:52:09.786Z,77.85
2019-05-11T10:53:48.256Z,77.67
2019-05-11T10:55:21.221Z,76.39
2019-05-11T10:56:57.937Z,75.20
2019-05-11T10:58:32.504Z,76.89
2019-05-11T11:00:08.545Z,75.77
2019-05-11T11:01:43.204Z,75.25
2019-05-11T11:03:48.131Z,77.87
2019-05-11T11:05:22.545Z,76.02
2019-05-11T11:06:59.177Z,76.33
2019-05-11T11:08:33.726Z,76.36
2019-05-11T11:10:09.125Z,76.50
2019-05-11T11:11:44.065Z,76.50
2019-05-11T11:13:18.970Z,76.95
2019-05-11T11:14:53.829Z,74.40
2019-05-11T11:16:36.863Z,73.33
2019-05-11T11:18:08.427Z,73.62
2019-05-11T11:19:42.608Z,72.83
2019-05-11T11:21:22.505Z,73.57
2019-05-11T11:22:53.951Z,72.28
2019-05-11T11:24:28.891Z,70.42
2019-05-11T11:26:03.854Z,71.81
2019-05-11T11:27:38.755Z,71.81
2019-05-11T11:29:13.465Z,72.16
2019-05-11T11:30:48.302Z,71.41
2019-05-11T11:32:22.971Z,70.54
2019-05-11T11:33:58.533Z,70.30
2019-05-11T11:35:47.724Z,73.35
2019-05-11T11:37:22.721Z,73.99
2019-05-11T11:38:58.373Z,73.29
2019-05-11T11:40:33.581Z,71.85
2019-05-11T11:42:08.462Z,71.85
2019-05-11T11:43:43.395Z,74.07
2019-05-11T11:45:18.545Z,73.10
2019-05-11T11:46:55.321Z,73.92
2019-05-11T11:48:29.684Z,73.92
2019-05-11T11:50:04.780Z,71.85
2019-05-11T11:51:39.479Z,72.90
2019-05-11T11:53:14.338Z,72.90
2019-05-11T11:54:49.005Z,73.08
2019-05-11T11:56:23.824Z,74.19
2019-05-11T11:57:58.973Z,75.08
2019-05-11T11:59:35.088Z,75.08
2019-05-11T12:01:09.729Z,74.12
2019-05-11T12:02:44.586Z,75.15
2019-05-11T12:04:19.290Z,74.89
2019-05-11T12:05:54.147Z,75.23
2019-05-11T12:07:28.791Z,75.98
2019-05-11T12:09:05.684Z,75.98
2019-05-11T12:10:40.338Z,75.25
2019-05-11T12:12:15.170Z,74.57
2019-05-11T12:13:49.825Z,75.63
2019-05-11T12:15:24.741Z,75.63
2019-05-11T12:17:06.979Z,76.64
2019-05-11T12:18:37.904Z,76.00
2019-05-11T12:20:12.273Z,75.02
2019-05-11T12:21:48.399Z,74.60
2019-05-11T12:23:23.136Z,75.44
2019-05-11T12:24:58.922Z,74.72
2019-05-11T12:26:33.808Z,76.23
2019-05-11T12:28:08.648Z,76.76
2019-05-11T12:29:43.343Z,76.76
2019-05-11T12:31:18.642Z,77.20
2019-05-11T12:32:53.431Z,76.55
2019-05-11T12:34:28.576Z,76.52
2019-05-11T12:36:03.727Z,76.50
2019-05-11T12:37:38.657Z,76.17
2019-05-11T12:39:13.331Z,76.03
2019-05-11T12:40:49.366Z,75.56
2019-05-11T12:42:24.059Z,75.30
2019-05-11T12:43:58.917Z,74.84
2019-05-11T12:45:33.564Z,74.84
2019-05-11T12:47:21.135Z,75.48
2019-05-11T12:48:44.834Z,74.92
2019-05-11T12:50:20.010Z,75.11
2019-05-11T12:51:54.665Z,74.76
2019-05-11T12:53:29.538Z,72.78
2019-05-11T12:55:04.438Z,72.78
2019-05-11T12:56:39.288Z,73.30
2019-05-11T12:58:14.714Z,73.30
2019-05-11T12:59:49.534Z,70.90
2019-05-11T13:01:24.184Z,71.83
2019-05-11T13:02:59.020Z,72.15
2019-05-11T13:04:33.736Z,72.15
2019-05-11T13:06:08.636Z,70.17
2019-05-11T13:07:43.278Z,70.56
2019-05-11T13:09:18.424Z,70.56
2019-05-11T13:10:53.166Z,68.20
2019-05-11T13:12:28.038Z,67.54
2019-05-11T13:14:02.765Z,67.54
2019-05-11T13:15:38.895Z,67.85
2019-05-11T13:17:13.604Z,66.56
2019-05-11T13:18:48.835Z,66.56
2019-05-11T13:20:23.663Z,65.21
2019-05-11T13:21:59.098Z,65.21
2019-05-11T13:23:33.828Z,65.87
2019-05-11T13:25:08.925Z,65.87
2019-05-11T13:26:45.165Z,65.94
2019-05-11T13:28:20.000Z,65.16
2019-05-11T13:29:54.636Z,65.92
2019-05-11T13:31:29.503Z,65.56
2019-05-11T13:33:04.195Z,65.48
2019-05-11T13:34:39.022Z,65.77
2019-05-11T13:36:13.773Z,66.84
2019-05-11T13:37:48.643Z,65.67
2019-05-11T13:39:23.295Z,66.63
2019-05-11T13:40:59.031Z,64.39
2019-05-11T13:42:33.992Z,64.39
2019-05-11T13:44:09.007Z,64.96
2019-05-11T13:45:43.667Z,63.49
2019-05-11T13:47:18.513Z,64.93
2019-05-11T13:48:53.165Z,65.25
2019-05-11T13:50:29.646Z,65.25
2019-05-11T13:52:04.511Z,64.16
2019-05-11T13:53:39.394Z,61.75
2019-05-11T13:55:14.243Z,62.74
2019-05-11T13:56:49.070Z,63.22
2019-05-11T13:58:23.794Z,63.22
2019-05-11T13:59:58.659Z,63.60
2019-05-11T14:01:33.288Z,63.64
2019-05-11T14:03:09.196Z,61.92
2019-05-11T14:04:44.023Z,61.59
2019-05-11T14:06:18.862Z,60.73
2019-05-11T14:07:54.571Z,62.95
2019-05-11T14:09:29.481Z,62.95
2019-05-11T14:11:04.214Z,61.65
2019-05-11T14:12:39.028Z,59.74
2019-05-11T14:14:13.688Z,60.21
2019-05-11T14:15:48.552Z,59.10
2019-05-11T14:17:23.207Z,58.73
2019-05-11T14:18:58.058Z,59.00
2019-05-11T14:20:33.150Z,57.21
2019-05-11T14:22:08.629Z,58.49
2019-05-11T14:23:43.556Z,59.01
2019-05-11T14:25:18.878Z,58.66
2019-05-11T14:26:53.675Z,59.43
2019-05-11T14:28:28.640Z,58.73
2019-05-11T14:30:04.269Z,58.68
2019-05-11T14:31:40.767Z,57.15
2019-05-11T14:33:18.104Z,55.88
2019-05-11T14:34:52.694Z,56.45
2019-05-11T14:36:28.194Z,57.25
2019-05-11T14:38:03.281Z,57.90
2019-05-11T14:39:38.421Z,57.28
2019-05-11T14:41:14.373Z,57.34
2019-05-11T14:42:49.186Z,58.45
2019-05-11T14:44:25.004Z,56.76
2019-05-11T14:45:59.696Z,56.10
2019-05-11T14:47:34.523Z,56.44
2019-05-11T14:49:09.203Z,54.05
2019-05-11T14:50:44.011Z,55.23
2019-05-11T14:52:18.942Z,55.74
2019-05-11T14:53:56.762Z,55.99
2019-05-11T14:55:30.458Z,55.93
2019-05-11T14:57:05.317Z,55.43
2019-05-11T14:58:39.979Z,54.37
2019-05-11T15:00:15.265Z,54.37
2019-05-11T15:01:50.042Z,54.10
2019-05-11T15:03:24.904Z,53.36
2019-05-11T15:04:59.532Z,53.83
2019-05-11T15:06:34.362Z,53.39
2019-05-11T15:08:08.981Z,53.79
2019-05-11T15:09:43.798Z,53.74
2019-05-11T15:11:19.180Z,55.03
2019-05-11T15:12:55.227Z,54.94
2019-05-11T15:14:29.864Z,53.51
2019-05-11T15:16:04.784Z,53.51
2019-05-11T15:17:39.724Z,55.14
2019-05-11T15:19:14.605Z,55.14
2019-05-11T15:20:49.367Z,55.45
2019-05-11T15:22:24.209Z,55.45
2019-05-11T15:23:58.850Z,55.76
2019-05-11T15:25:33.697Z,54.93
2019-05-11T15:27:08.314Z,55.42
2019-05-11T15:28:43.145Z,55.47
2019-05-11T15:30:18.494Z,55.75
2019-05-11T15:31:53.450Z,55.99
2019-05-11T15:33:28.122Z,55.92
2019-05-11T15:35:02.966Z,56.78
2019-05-11T15:36:38.658Z,55.06
2019-05-11T15:38:13.812Z,56.15
2019-05-11T15:39:48.504Z,56.09
2019-05-11T15:41:23.288Z,56.52
2019-05-11T15:42:58.519Z,57.09
2019-05-11T15:44:33.690Z,57.69
2019-05-11T15:46:08.426Z,57.39
2019-05-11T15:47:43.287Z,57.39
2019-05-11T15:49:18.225Z,59.48
2019-05-11T15:50:52.996Z,59.10
2019-05-11T15:52:27.653Z,58.42
2019-05-11T15:54:02.449Z,58.77
2019-05-11T15:55:39.381Z,56.72
2019-05-11T15:57:13.656Z,56.72
2019-05-11T15:58:48.724Z,57.43
2019-05-11T16:00:23.691Z,56.03
2019-05-11T16:01:58.345Z,57.29
2019-05-11T16:03:33.252Z,55.99
2019-05-11T16:05:08.944Z,56.25
2019-05-11T16:06:43.814Z,55.42
2019-05-11T16:08:18.982Z,55.61
2019-05-11T16:09:53.927Z,55.61
2019-05-11T16:11:29.010Z,56.46
2019-05-11T16:13:04.147Z,57.01
2019-05-11T16:14:39.009Z,56.12
2019-05-11T16:16:15.255Z,56.06
2019-05-11T16:17:50.544Z,57.42
2019-05-11T16:19:25.563Z,57.76
2019-05-11T16:21:02.321Z,57.62
2019-05-11T16:22:38.523Z,57.62
2019-05-11T16:24:13.589Z,56.30
2019-05-11T16:25:48.999Z,56.66
2019-05-11T16:27:24.010Z,57.20
2019-05-11T16:29:00.605Z,57.51
2019-05-11T16:30:37.875Z,57.74
2019-05-11T16:32:12.912Z,58.11
2019-05-11T16:33:48.387Z,58.51
2019-05-11T16:35:25.156Z,59.23
2019-05-11T16:36:59.867Z,59.13
2019-05-11T16:38:34.896Z,59.74
2019-05-11T16:40:10.260Z,60.08
2019-05-11T16:41:45.380Z,59.34
2019-05-11T16:43:20.228Z,59.56
2019-05-11T16:44:57.613Z,59.41
2019-05-11T16:46:31.767Z,59.83
2019-05-11T16:48:08.013Z,59.21
2019-05-11T16:49:42.911Z,60.29
2019-05-11T16:51:17.866Z,60.12
2019-05-11T16:52:52.618Z,60.65
2019-05-11T16:54:28.055Z,60.69
2019-05-11T16:56:02.755Z,60.71
2019-05-11T16:57:38.221Z,60.93
2019-05-11T16:59:12.934Z,60.74
2019-05-11T17:00:48.984Z,60.95
2019-05-11T17:04:52.321Z,61.79
2019-05-11T17:06:28.535Z,61.61
2019-05-11T17:08:03.449Z,61.69
2019-05-11T17:09:38.300Z,60.71
2019-05-11T17:11:12.958Z,62.03
2019-05-11T17:12:48.665Z,61.49
2019-05-11T17:14:23.632Z,60.89
2019-05-11T17:15:58.541Z,61.00
2019-05-11T17:17:33.185Z,60.99
2019-05-11T17:19:08.324Z,61.75
2019-05-11T17:20:43.024Z,61.75
2019-05-11T17:22:18.996Z,60.82
2019-05-11T17:23:53.784Z,60.80
2019-05-11T17:25:28.904Z,59.06
2019-05-11T17:27:03.683Z,59.62
2019-05-11T17:28:39.612Z,59.33
2019-05-11T17:30:14.443Z,59.33
2019-05-11T17:31:49.292Z,57.31
2019-05-11T17:33:23.941Z,57.31
2019-05-11T17:34:58.763Z,55.83
2019-05-11T17:36:33.445Z,53.71
2019-05-11T17:38:08.267Z,52.52
2019-05-11T17:39:42.989Z,52.52
2019-05-11T17:41:17.834Z,53.22
2019-05-11T17:42:54.227Z,52.36
2019-05-11T17:44:29.158Z,52.72
2019-05-11T17:46:03.817Z,52.58
2019-05-11T17:47:38.936Z,51.31
2019-05-11T17:49:13.593Z,50.70
2019-05-11T17:50:48.530Z,53.34
2019-05-11T17:52:23.189Z,50.01
2019-05-11T17:53:59.724Z,50.01
2019-05-11T17:55:34.565Z,48.42
2019-05-11T17:57:09.546Z,47.82
2019-05-11T17:58:44.221Z,47.34
2019-05-11T18:00:20.887Z,47.84
2019-05-11T18:01:55.538Z,47.28
2019-05-11T18:03:30.436Z,46.68
2019-05-11T18:05:05.416Z,46.50
2019-05-11T18:06:40.268Z,45.87
2019-05-11T18:08:14.921Z,45.70
2019-05-11T18:09:49.768Z,46.02
2019-05-11T18:11:24.409Z,46.02
2019-05-11T18:12:59.236Z,45.19
2019-05-11T18:14:36.015Z,45.19
2019-05-11T18:16:11.494Z,45.83
2019-05-11T18:17:48.490Z,45.84
2019-05-11T18:19:22.675Z,45.87
2019-05-11T18:20:58.048Z,45.87
2019-05-11T18:22:32.949Z,45.54
2019-05-11T18:24:09.160Z,45.54
2019-05-11T18:25:44.081Z,45.81
2019-05-11T18:27:18.744Z,46.45
2019-05-11T18:28:53.580Z,45.61
2019-05-11T18:30:29.353Z,45.74
2019-05-11T18:32:05.592Z,45.74
2019-05-11T18:33:40.246Z,46.34
2019-05-11T18:35:15.157Z,45.73
2019-05-11T18:36:49.825Z,46.85
2019-05-11T18:38:24.663Z,46.85
2019-05-11T18:39:59.357Z,45.92
2019-05-11T18:41:34.225Z,45.17
2019-05-11T18:43:08.861Z,46.36
2019-05-11T18:44:43.681Z,45.81
2019-05-11T18:46:18.319Z,45.60
2019-05-11T18:47:54.117Z,46.11
2019-05-11T18:49:28.827Z,46.52
2019-05-11T18:51:03.684Z,47.63
2019-05-11T18:52:38.470Z,47.63
2019-05-11T18:54:13.324Z,47.56
2019-05-11T18:55:48.685Z,47.79
2019-05-11T18:57:23.608Z,48.53
2019-05-11T18:58:58.451Z,48.53
2019-05-11T19:00:33.253Z,49.89
2019-05-11T19:02:08.539Z,50.25
2019-05-11T19:03:43.560Z,50.56
2019-05-11T19:05:18.331Z,50.56
2019-05-11T19:06:53.306Z,50.89
2019-05-11T19:08:28.208Z,51.31
2019-05-11T19:10:03.148Z,51.31
2019-05-11T19:11:38.442Z,54.04
2019-05-11T19:13:22.708Z,55.60
2019-05-11T19:14:58.700Z,56.56
2019-05-11T19:16:45.546Z,56.56
2019-05-11T19:18:20.261Z,57.36
2019-05-11T19:19:55.097Z,58.21
2019-05-11T19:21:29.825Z,59.11
2019-05-11T19:23:04.756Z,59.11
2019-05-11T19:24:39.397Z,60.19
2019-05-11T19:26:14.234Z,60.39
2019-05-11T19:27:50.738Z,60.39
2019-05-11T19:29:25.490Z,60.86
2019-05-11T19:31:00.147Z,61.54
2019-05-11T19:32:35.043Z,61.39
2019-05-11T19:34:09.702Z,61.76
2019-05-11T19:35:44.508Z,61.87
2019-05-11T19:37:19.141Z,62.24
2019-05-11T19:38:53.962Z,62.24
2019-05-11T19:40:28.600Z,62.61
2019-05-11T19:42:03.423Z,62.70
2019-05-11T19:43:38.289Z,63.01
2019-05-11T19:45:13.293Z,63.22
2019-05-11T19:46:47.960Z,63.74
2019-05-11T19:48:22.793Z,63.44
2019-05-11T19:49:58.238Z,64.13
2019-05-11T19:51:33.142Z,64.26
2019-05-11T19:53:08.472Z,64.36
2019-05-11T19:54:43.437Z,64.68
2019-05-11T19:56:18.383Z,64.73
2019-05-11T19:57:53.463Z,65.42
2019-05-11T19:59:28.170Z,65.65
2019-05-11T20:01:33.830Z,65.39
2019-05-11T20:03:09.239Z,65.51
2019-05-11T20:04:44.083Z,65.79
2019-05-11T20:06:19.180Z,66.03
2019-05-11T20:07:53.806Z,66.13
2019-05-11T20:09:28.632Z,66.18
2019-05-11T20:11:04.403Z,66.59
2019-05-11T20:12:41.811Z,66.76
2019-05-11T20:14:15.596Z,66.87
2019-05-11T20:15:50.408Z,67.19
2019-05-11T20:17:25.064Z,67.55
2019-05-11T20:18:59.911Z,68.02
2019-05-11T20:20:34.565Z,68.13
2019-05-11T20:22:09.395Z,67.92
2019-05-11T20:23:44.028Z,68.20
2019-05-11T20:25:19.450Z,68.29
2019-05-11T20:26:54.173Z,68.50
2019-05-11T20:28:28.991Z,69.08